Time;durP1;ratioP1;P1;durP2;ratioP2;P2;SDS_P1;SDS_P2;PMS_P1;PMS_P2;Temp;Humidity;BMP_temperature;BMP_pressure;BME280_temperature;BME280_humidity;BME280_pressure;Samples;Min_cycle;Max_cycle;Signal;HPM_P1;HPM_P2
2022/06/11 00:01:20;;;;;;;;;;;;;;;21.34;69.54;100300.34;7407174;19;1843;-55
2022/06/11 00:03:50;;;;;;;;;;;;;;;21.35;69.64;100299.34;7410696;19;1616;-54
2022/06/11 00:06:18;;;;;;;;;;;;;;;21.35;69.81;100293.97;7409405;19;1371;-54
2022/06/11 00:08:47;;;;;;;;;;;;;;;21.17;70.12;100283.31;7409356;19;1300;-55
2022/06/11 00:11:15;;;;;;;;;;;;;;;21.15;70.05;100296.06;7408108;19;1858;-54
2022/06/11 00:13:44;;;;;;;;;;;;;;;21.30;69.70;100277.47;7406065;19;1453;-54
2022/06/11 00:16:17;;;;;;;;;;;;;;;21.28;70.14;100303.69;7409441;19;1529;-54
2022/06/11 00:18:46;;;;;;;;;;;;;;;21.14;70.65;100302.44;7409950;19;1412;-55
2022/06/11 00:21:16;;;;;;;;;;;;;;;21.28;70.14;100322.50;7406846;19;1853;-55
2022/06/11 00:23:46;;;;;;;;;;;;;;;21.30;69.70;100300.84;7409853;19;1761;-55
2022/06/11 00:26:14;;;;;;;;;;;;;;;21.11;70.71;100293.84;7409247;19;1473;-55
2022/06/11 00:28:43;;;;;;;;;;;;;;;21.14;70.41;100305.13;7406127;19;1454;-54
2022/06/11 00:31:12;;;;;;;;;;;;;;;21.19;70.36;100308.19;7408688;19;1352;-54
2022/06/11 00:33:43;;;;;;;;;;;;;;;21.22;70.27;100296.25;7408431;19;1290;-55
2022/06/11 00:36:12;;;;;;;;;;;;;;;21.14;70.22;100302.44;7409583;19;1079;-55
2022/06/11 00:38:41;;;;;;;;;;;;;;;21.13;70.64;100291.84;7409799;19;1035;-54
2022/06/11 00:41:10;;;;;;;;;;;;;;;21.18;70.35;100302.97;7407410;19;1858;-54
2022/06/11 00:43:39;;;;;;;;;;;;;;;21.01;70.96;100302.06;7405217;19;1526;-55
2022/06/11 00:46:22;;;;;;;;;;;;;;;20.89;71.47;100296.13;7409374;19;1607;-54
2022/06/11 00:48:53;;;;;;;;;;;;;;;20.91;71.27;100299.50;7408317;19;1399;-55
2022/06/11 00:51:23;;;;;;;;;;;;;;;20.91;71.42;100307.56;7406925;19;1685;-55
2022/06/11 00:53:54;;;;;;;;;;;;;;;21.09;70.73;100309.31;7407242;19;1618;-55
2022/06/11 00:56:24;;;;;;;;;;;;;;;21.15;70.41;100306.84;7407379;19;1525;-55
2022/06/11 00:58:55;;;;;;;;;;;;;;;21.33;69.98;100319.31;7408136;19;1411;-54
2022/06/11 01:01:26;;;;;;;;;;;;;;;21.33;69.77;100308.56;7406498;19;1869;-54
2022/06/11 01:03:58;;;;;;;;;;;;;;;21.31;69.85;100313.25;7408212;19;1296;-54
2022/06/11 01:06:32;;;;;;;;;;;;;;;21.36;69.86;100319.84;7407859;19;1695;-55
2022/06/11 01:09:03;;;;;;;;;;;;;;;21.28;69.80;100306.38;7407594;19;1667;-55
2022/06/11 01:11:40;;;;;;;;;;;;;;;21.17;70.53;100310.19;7405702;19;1534;-55
2022/06/11 01:14:22;;;;;;;;;;;;;;;21.29;69.96;100312.59;7404950;19;1773;-54
2022/06/11 01:16:55;;;;;;;;;;;;;;;21.30;69.71;100304.34;7406647;19;1540;-55
2022/06/11 01:19:37;;;;;;;;;;;;;;;21.36;69.90;100313.63;7406760;19;1456;-55
2022/06/11 01:22:12;;;;;;;;;;;;;;;21.30;69.98;100323.19;7403776;19;1901;-55
2022/06/11 01:24:51;;;;;;;;;;;;;;;21.33;69.65;100320.19;7407338;19;1381;-54
2022/06/11 01:27:37;;;;;;;;;;;;;;;21.29;70.26;100321.53;7407467;19;1191;-54
2022/06/11 01:30:09;;;;;;;;;;;;;;;21.32;69.92;100320.34;7406896;19;1675;-55
2022/06/11 01:32:44;;;;;;;;;;;;;;;21.37;69.79;100331.47;7406921;19;1576;-55
2022/06/11 01:35:17;;;;;;;;;;;;;;;21.36;69.84;100325.22;7406637;19;1434;-55
2022/06/11 01:37:48;;;;;;;;;;;;;;;21.38;69.74;100338.53;7406675;19;1535;-54
2022/06/11 01:40:22;;;;;;;;;;;;;;;21.35;69.85;100333.47;7406273;19;1859;-54
2022/06/11 01:42:53;;;;;;;;;;;;;;;21.34;69.93;100343.38;7407120;19;937;-54
2022/06/11 01:45:26;;;;;;;;;;;;;;;21.25;70.08;100337.13;7405808;19;1654;-55
2022/06/11 01:47:55;;;;;;;;;;;;;;;21.13;70.42;100340.25;7406492;19;1564;-55
2022/06/11 01:50:26;;;;;;;;;;;;;;;21.15;70.28;100354.38;7406789;19;1533;-56
2022/06/11 01:53:09;;;;;;;;;;;;;;;21.25;70.14;100344.34;7406208;19;1722;-55
2022/06/11 01:55:49;;;;;;;;;;;;;;;21.28;70.08;100352.09;7406120;19;1335;-54
2022/06/11 01:58:24;;;;;;;;;;;;;;;21.20;70.43;100352.88;7406914;19;1540;-55
2022/06/11 02:01:00;;;;;;;;;;;;;;;21.20;70.39;100358.25;7398101;19;1876;-55
2022/06/11 02:03:31;;;;;;;;;;;;;;;21.25;70.05;100349.75;7402274;19;1627;-55
2022/06/11 02:06:14;;;;;;;;;;;;;;;21.32;70.51;100350.75;7405441;19;1272;-55
2022/06/11 02:08:49;;;;;;;;;;;;;;;21.33;70.59;100343.53;7404699;19;1360;-55
2022/06/11 02:11:21;;;;;;;;;;;;;;;21.36;70.39;100356.66;7404611;19;1393;-54
2022/06/11 02:13:52;;;;;;;;;;;;;;;21.25;70.54;100349.75;7405797;19;1314;-55
2022/06/11 02:16:26;;;;;;;;;;;;;;;21.14;71.10;100363.44;7406102;19;1382;-54
2022/06/11 02:18:55;;;;;;;;;;;;;;;21.18;70.52;100356.75;7406462;19;1740;-55
2022/06/11 02:21:27;;;;;;;;;;;;;;;21.15;70.66;100360.59;7402554;19;1853;-55
2022/06/11 02:23:57;;;;;;;;;;;;;;;21.23;70.53;100357.97;7404906;19;992;-55
2022/06/11 02:26:30;;;;;;;;;;;;;;;21.26;70.63;100351.41;7405696;19;1745;-55
2022/06/11 02:28:59;;;;;;;;;;;;;;;21.30;70.68;100368.06;7402507;19;1423;-55
2022/06/11 02:31:32;;;;;;;;;;;;;;;21.30;70.59;100374.28;7404633;19;1314;-55
2022/06/11 02:34:03;;;;;;;;;;;;;;;21.30;70.31;100363.53;7404882;19;1415;-55
2022/06/11 02:36:33;;;;;;;;;;;;;;;21.14;70.65;100374.19;7404899;19;1291;-54
2022/06/11 02:39:04;;;;;;;;;;;;;;;21.16;70.64;100364.13;7404933;19;1434;-55
2022/06/11 02:41:33;;;;;;;;;;;;;;;21.22;70.20;100366.19;7404427;19;1846;-55
2022/06/11 02:44:02;;;;;;;;;;;;;;;21.24;70.42;100364.16;7402169;19;1459;-55
2022/06/11 02:46:45;;;;;;;;;;;;;;;21.17;70.46;100372.03;7405046;19;1571;-55
2022/06/11 02:49:15;;;;;;;;;;;;;;;21.04;70.73;100361.69;7404541;19;1430;-55
2022/06/11 02:51:44;;;;;;;;;;;;;;;21.09;70.46;100360.38;7405562;19;949;-55
2022/06/11 02:54:13;;;;;;;;;;;;;;;21.10;70.76;100368.28;7402045;19;1437;-55
2022/06/11 02:56:42;;;;;;;;;;;;;;;21.03;70.99;100373.47;7404564;19;1458;-57
2022/06/11 02:59:10;;;;;;;;;;;;;;;21.11;70.51;100370.00;7398354;19;1494;-59
2022/06/11 03:01:42;;;;;;;;;;;;;;;21.01;70.91;100363.88;7399835;19;1846;-57
2022/06/11 03:04:10;;;;;;;;;;;;;;;21.16;70.64;100374.88;7403523;19;1357;-54
2022/06/11 03:06:41;;;;;;;;;;;;;;;21.34;69.83;100369.44;7403892;19;1500;-54
2022/06/11 03:09:09;;;;;;;;;;;;;;;21.28;69.92;100368.22;7403389;19;1102;-57
2022/06/11 03:11:38;;;;;;;;;;;;;;;21.29;70.11;100388.75;7400289;19;1466;-57
2022/06/11 03:14:06;;;;;;;;;;;;;;;21.26;70.23;100381.81;7403109;19;1594;-56
2022/06/11 03:16:36;;;;;;;;;;;;;;;21.34;70.27;100369.44;7402468;19;1198;-56
2022/06/11 03:19:07;;;;;;;;;;;;;;;21.30;70.68;100381.53;7408566;19;1326;-56
2022/06/11 03:21:36;;;;;;;;;;;;;;;21.33;70.40;100371.28;7409055;19;1848;-57
2022/06/11 03:24:06;;;;;;;;;;;;;;;21.31;70.22;100362.53;7410849;19;1429;-56
2022/06/11 03:26:35;;;;;;;;;;;;;;;21.32;70.46;100374.13;7411480;19;1082;-58
2022/06/11 03:29:04;;;;;;;;;;;;;;;21.26;70.21;100373.75;7409544;19;1368;-58
2022/06/11 03:31:32;;;;;;;;;;;;;;;21.36;70.42;100368.25;7410705;19;1264;-57
2022/06/11 03:34:01;;;;;;;;;;;;;;;21.44;70.18;100370.19;7410102;19;1354;-56
2022/06/11 03:36:32;;;;;;;;;;;;;;;21.44;70.38;100370.19;7410725;19;1350;-55
2022/06/11 03:39:00;;;;;;;;;;;;;;;21.39;70.46;100364.44;7410803;19;1390;-55
2022/06/11 03:41:29;;;;;;;;;;;;;;;21.42;70.12;100364.09;7409488;19;1855;-56
2022/06/11 03:43:58;;;;;;;;;;;;;;;21.44;70.33;100365.63;7408060;19;1389;-56
2022/06/11 03:46:28;;;;;;;;;;;;;;;21.40;70.39;100369.63;7409827;19;1410;-56
2022/06/11 03:48:56;;;;;;;;;;;;;;;21.48;70.00;100382.31;7409483;19;1420;-55
2022/06/11 03:51:25;;;;;;;;;;;;;;;21.49;70.37;100367.00;7410023;19;1300;-55
2022/06/11 03:53:56;;;;;;;;;;;;;;;21.44;70.15;100375.56;7411161;19;1242;-55
2022/06/11 03:56:25;;;;;;;;;;;;;;;21.53;70.11;100377.28;7410592;19;1058;-55
2022/06/11 03:58:54;;;;;;;;;;;;;;;21.50;70.34;100374.09;7407217;19;1353;-55
2022/06/11 04:01:23;;;;;;;;;;;;;;;21.44;70.53;100371.03;7407206;19;1875;-57
2022/06/11 04:03:53;;;;;;;;;;;;;;;21.42;70.33;100377.53;7409340;19;1181;-55
2022/06/11 04:06:23;;;;;;;;;;;;;;;21.49;70.31;100380.44;7409988;19;1406;-56
2022/06/11 04:08:52;;;;;;;;;;;;;;;21.45;70.38;100386.16;7409211;19;1149;-55
2022/06/11 04:11:23;;;;;;;;;;;;;;;21.44;70.42;100389.84;7408471;19;1401;-57
2022/06/11 04:13:53;;;;;;;;;;;;;;;21.52;70.43;100398.97;7408360;19;1216;-56
2022/06/11 04:16:27;;;;;;;;;;;;;;;21.50;70.51;100395.59;7408914;19;1183;-54
2022/06/11 04:18:56;;;;;;;;;;;;;;;21.44;70.90;100392.53;7408621;19;1338;-54
2022/06/11 04:21:24;;;;;;;;;;;;;;;21.50;70.63;100411.75;7408992;19;1855;-56
2022/06/11 04:23:55;;;;;;;;;;;;;;;21.53;70.23;100423.03;7409860;19;1155;-57
2022/06/11 04:26:28;;;;;;;;;;;;;;;21.43;70.35;100416.94;7410276;19;976;-55
2022/06/11 04:28:59;;;;;;;;;;;;;;;21.39;70.52;100411.00;7406218;19;1315;-55
2022/06/11 04:31:28;;;;;;;;;;;;;;;21.43;70.59;100411.56;7407648;19;1264;-55
2022/06/11 04:33:57;;;;;;;;;;;;;;;21.47;70.34;100428.19;7407971;19;1409;-59
2022/06/11 04:36:27;;;;;;;;;;;;;;;21.47;70.46;100429.06;7408742;19;1303;-61
2022/06/11 04:38:56;;;;;;;;;;;;;;;21.47;70.40;100422.81;7408425;19;1141;-60
2022/06/11 04:41:27;;;;;;;;;;;;;;;21.58;70.13;100425.22;7408826;19;1860;-60
2022/06/11 04:43:55;;;;;;;;;;;;;;;21.35;70.82;100427.63;7407384;19;1309;-58
2022/06/11 04:46:24;;;;;;;;;;;;;;;21.22;71.52;100436.09;7407530;19;1260;-59
2022/06/11 04:48:53;;;;;;;;;;;;;;;21.19;71.49;100428.38;7407784;19;1345;-60
2022/06/11 04:51:22;;;;;;;;;;;;;;;21.16;72.17;100436.72;7407912;19;1358;-60
2022/06/11 04:53:51;;;;;;;;;;;;;;;21.24;71.42;100437.63;7408010;19;1131;-59
2022/06/11 04:56:21;;;;;;;;;;;;;;;21.27;71.49;100425.72;7408135;19;1477;-59
2022/06/11 04:58:52;;;;;;;;;;;;;;;21.26;71.44;100442.84;7404934;19;1266;-58
2022/06/11 05:01:21;;;;;;;;;;;;;;;21.36;71.21;100427.44;7405114;19;1845;-59
2022/06/11 05:03:50;;;;;;;;;;;;;;;21.36;71.46;100432.81;7407384;19;1222;-56
2022/06/11 05:06:20;;;;;;;;;;;;;;;21.54;70.82;100423.88;7406317;19;1432;-56
2022/06/11 05:08:48;;;;;;;;;;;;;;;21.56;70.56;100438.00;7407418;19;1116;-60
2022/06/11 05:11:17;;;;;;;;;;;;;;;21.62;70.69;100442.75;7404615;19;1750;-58
2022/06/11 05:13:46;;;;;;;;;;;;;;;21.51;71.08;100426.91;7405533;19;1343;-59
2022/06/11 05:16:19;;;;;;;;;;;;;;;21.50;71.01;100425.19;7405644;19;1544;-60
2022/06/11 05:18:47;;;;;;;;;;;;;;;21.41;71.22;100440.44;7405667;19;1219;-60
2022/06/11 05:21:16;;;;;;;;;;;;;;;21.49;71.19;100429.75;7407085;19;1850;-61
2022/06/11 05:23:44;;;;;;;;;;;;;;;21.36;71.48;100440.06;7406107;19;1189;-56
2022/06/11 05:26:13;;;;;;;;;;;;;;;21.41;71.55;100422.44;7407075;19;1647;-57
2022/06/11 05:28:42;;;;;;;;;;;;;;;21.42;71.26;100442.09;7405344;19;1152;-55
2022/06/11 05:31:10;;;;;;;;;;;;;;;21.39;71.56;100429.00;7406114;19;1314;-56
2022/06/11 05:33:42;;;;;;;;;;;;;;;21.32;71.89;100426.06;7405799;19;1153;-56
2022/06/11 05:36:10;;;;;;;;;;;;;;;21.45;71.37;100439.13;7407116;19;1058;-55
2022/06/11 05:38:38;;;;;;;;;;;;;;;21.51;71.27;100434.97;7406293;19;1801;-55
2022/06/11 05:41:07;;;;;;;;;;;;;;;21.56;71.37;100444.22;7405654;19;1726;-55
2022/06/11 05:43:35;;;;;;;;;;;;;;;21.60;71.37;100444.75;7401576;19;1845;-55
2022/06/11 05:46:05;;;;;;;;;;;;;;;21.54;71.39;100440.00;7403096;19;1366;-55
2022/06/11 05:48:36;;;;;;;;;;;;;;;21.71;71.34;100446.34;7396979;19;1335;-56
2022/06/11 05:51:08;;;;;;;;;;;;;;;21.76;70.54;100444.81;7400901;19;942;-54
2022/06/11 05:53:39;;;;;;;;;;;;;;;21.79;70.73;100452.59;7402146;19;2032;-55
2022/06/11 05:56:08;;;;;;;;;;;;;;;21.84;70.53;100458.34;7402468;19;1478;-56
2022/06/11 05:58:39;;;;;;;;;;;;;;;21.78;70.77;100458.97;7398022;19;1623;-56
2022/06/11 06:01:08;;;;;;;;;;;;;;;21.76;71.25;100436.75;7404489;19;1762;-55
2022/06/11 06:03:36;;;;;;;;;;;;;;;21.73;71.19;100455.94;7403459;19;1870;-56
2022/06/11 06:06:07;;;;;;;;;;;;;;;21.71;71.66;100446.34;7406684;19;961;-54
2022/06/11 06:08:36;;;;;;;;;;;;;;;21.71;71.04;100447.16;7406416;19;1491;-57
2022/06/11 06:11:04;;;;;;;;;;;;;;;21.69;71.31;100461.81;7404774;19;1579;-57
2022/06/11 06:16:13;;;;;;;;;;;;;;;21.77;71.00;100468.06;7405920;19;1626;-54
2022/06/11 06:18:42;;;;;;;;;;;;;;;21.88;70.94;100476.84;7405006;19;1344;-55
2022/06/11 06:21:13;;;;;;;;;;;;;;;21.82;71.16;100454.94;7405329;19;1339;-57
2022/06/11 06:23:41;;;;;;;;;;;;;;;21.88;70.85;100463.38;7404097;19;1854;-54
2022/06/11 06:26:10;;;;;;;;;;;;;;;21.73;71.29;100490.91;7403859;19;1621;-56
2022/06/11 06:28:39;;;;;;;;;;;;;;;21.73;71.48;100490.06;7402900;19;1528;-57
2022/06/11 06:31:08;;;;;;;;;;;;;;;21.85;71.26;100495.00;7405646;19;1860;-55
2022/06/11 06:33:37;;;;;;;;;;;;;;;21.88;71.28;100490.31;7405391;19;1524;-58
2022/06/11 06:36:06;;;;;;;;;;;;;;;21.88;71.11;100493.00;7406446;19;977;-59
2022/06/11 06:38:38;;;;;;;;;;;;;;;21.82;71.03;100499.88;7405364;19;1541;-56
2022/06/11 06:41:07;;;;;;;;;;;;;;;21.81;71.15;100507.09;7404891;19;1780;-57
2022/06/11 06:43:36;;;;;;;;;;;;;;;21.80;71.20;100510.78;7399967;19;1822;-59
2022/06/11 06:46:04;;;;;;;;;;;;;;;21.86;70.62;100520.06;7404815;19;1395;-59
2022/06/11 06:48:33;;;;;;;;;;;;;;;21.81;70.60;100520.56;7405732;19;1058;-60
2022/06/11 06:51:02;;;;;;;;;;;;;;;21.77;70.93;100538.03;7406000;19;959;-59
2022/06/11 06:53:30;;;;;;;;;;;;;;;21.84;71.18;100530.16;7408510;19;1749;-58
2022/06/11 06:56:01;;;;;;;;;;;;;;;21.89;70.60;100518.94;7411988;19;1754;-55
2022/06/11 06:58:30;;;;;;;;;;;;;;;21.91;70.60;100533.06;7408816;19;1644;-57
2022/06/11 07:00:58;;;;;;;;;;;;;;;21.87;70.76;100537.94;7411188;19;1606;-57
2022/06/11 07:03:26;;;;;;;;;;;;;;;21.79;70.87;100536.03;7411231;19;1865;-57
2022/06/11 07:05:55;;;;;;;;;;;;;;;21.78;71.39;100547.78;7412417;19;1741;-58
2022/06/11 07:08:23;;;;;;;;;;;;;;;21.80;70.98;100543.09;7411898;19;1428;-59
2022/06/11 07:10:52;;;;;;;;;;;;;;;21.83;71.01;100537.38;7409564;19;1707;-57
2022/06/11 07:13:24;;;;;;;;;;;;;;;21.90;70.87;100553.75;7412050;19;1508;-57
2022/06/11 07:15:55;;;;;;;;;;;;;;;21.88;70.76;100538.75;7412431;19;972;-56
2022/06/11 07:18:25;;;;;;;;;;;;;;;22.05;70.31;100557.53;7410703;19;1070;-55
2022/06/11 07:20:55;;;;;;;;;;;;;;;21.96;70.78;100547.72;7411563;19;1766;-57
2022/06/11 07:23:24;;;;;;;;;;;;;;;22.01;70.52;100558.84;7408801;19;1849;-59
2022/06/11 07:25:55;;;;;;;;;;;;;;;21.88;70.97;100549.53;7411887;19;1353;-57
2022/06/11 07:28:27;;;;;;;;;;;;;;;21.77;71.21;100559.56;7411492;19;1293;-57
2022/06/11 07:30:56;;;;;;;;;;;;;;;21.70;71.31;100563.88;7411119;19;1358;-57
2022/06/11 07:33:26;;;;;;;;;;;;;;;21.63;71.27;100562.84;7411779;19;1054;-57
2022/06/11 07:35:55;;;;;;;;;;;;;;;21.60;71.36;100573.91;7411280;19;1694;-57
2022/06/11 07:38:24;;;;;;;;;;;;;;;21.58;71.17;100567.84;7410739;19;1746;-57
2022/06/11 07:40:53;;;;;;;;;;;;;;;21.63;71.22;100562.84;7410753;19;1698;-57
2022/06/11 07:43:21;;;;;;;;;;;;;;;21.61;70.89;100571.06;7409268;19;1848;-57
2022/06/11 07:45:53;;;;;;;;;;;;;;;21.66;70.83;100567.91;7411316;19;1121;-57
2022/06/11 07:48:21;;;;;;;;;;;;;;;21.68;71.01;100565.88;7411443;19;1017;-57
2022/06/11 07:50:51;;;;;;;;;;;;;;;21.68;70.69;100565.06;7410310;19;1766;-57
2022/06/11 07:53:20;;;;;;;;;;;;;;;21.65;70.69;100560.84;7410290;19;1675;-57
2022/06/11 07:55:50;;;;;;;;;;;;;;;21.73;70.90;100573.50;7407931;19;1700;-57
2022/06/11 07:58:19;;;;;;;;;;;;;;;21.63;70.93;100562.84;7409313;19;1320;-52
2022/06/11 08:00:50;;;;;;;;;;;;;;;21.67;70.81;100577.66;7408653;19;1443;-52
2022/06/11 08:03:21;;;;;;;;;;;;;;;21.75;70.54;100563.44;7406111;19;1848;-52
2022/06/11 08:05:51;;;;;;;;;;;;;;;21.88;70.40;100581.84;7409669;19;1583;-53
2022/06/11 08:08:21;;;;;;;;;;;;;;;21.90;70.65;100574.44;7409408;19;1470;-54
2022/06/11 08:10:49;;;;;;;;;;;;;;;21.94;70.75;100567.72;7406507;19;1453;-55
2022/06/11 08:13:18;;;;;;;;;;;;;;;22.01;70.76;100571.50;7408373;19;1525;-54
2022/06/11 08:15:47;;;;;;;;;;;;;;;22.19;70.37;100580.31;7407600;19;1349;-57
2022/06/11 08:18:16;;;;;;;;;;;;;;;22.20;70.52;100570.38;7408840;19;1494;-60
2022/06/11 08:20:49;;;;;;;;;;;;;;;22.02;70.97;100565.06;7406568;19;1403;-63
2022/06/11 08:23:18;;;;;;;;;;;;;;;21.85;71.38;100570.38;7404534;19;1861;-61
2022/06/11 08:25:47;;;;;;;;;;;;;;;21.84;71.84;100557.06;7409017;19;1586;-59
2022/06/11 08:28:17;;;;;;;;;;;;;;;22.14;71.94;100561.09;7407615;19;1224;-56
2022/06/11 08:30:46;;;;;;;;;;;;;;;22.23;71.49;100564.69;7408873;19;1177;-49
2022/06/11 08:33:15;;;;;;;;;;;;;;;22.40;71.01;100561.09;7409336;19;1667;-51
2022/06/11 08:35:43;;;;;;;;;;;;;;;22.31;70.64;100555.84;7408309;19;1722;-49
2022/06/11 08:38:14;;;;;;;;;;;;;;;22.29;70.80;100571.31;7408861;19;1620;-50
2022/06/11 08:40:44;;;;;;;;;;;;;;;22.20;70.99;100552.41;7409168;19;1540;-51
2022/06/11 08:43:21;;;;;;;;;;;;;;;22.15;71.44;100549.34;7408154;19;1869;-52
2022/06/11 08:45:51;;;;;;;;;;;;;;;22.21;71.19;100548.69;7409075;19;1350;-52
2022/06/11 08:48:24;;;;;;;;;;;;;;;22.29;71.56;100553.28;7408518;19;1938;-56
2022/06/11 08:50:58;;;;;;;;;;;;;;;22.31;70.60;100550.44;7409253;19;1733;-52
2022/06/11 08:53:29;;;;;;;;;;;;;;;22.37;71.16;100544.41;7405228;19;1261;-59
2022/06/11 08:55:58;;;;;;;;;;;;;;;22.43;71.28;100541.06;7401359;19;1231;-56
2022/06/11 08:58:37;;;;;;;;;;;;;;;22.64;71.17;100557.63;7403121;19;1364;-57
2022/06/11 09:01:11;;;;;;;;;;;;;;;22.49;70.50;100561.94;7400706;19;1622;-59
2022/06/11 09:03:47;;;;;;;;;;;;;;;22.47;71.25;100561.28;7400829;19;1849;-59
2022/06/11 09:06:22;;;;;;;;;;;;;;;22.57;71.44;100550.34;7400979;19;1815;-60
2022/06/11 09:09:02;;;;;;;;;;;;;;;22.44;71.51;100545.41;7401729;19;1269;-57
2022/06/11 09:11:43;;;;;;;;;;;;;;;22.30;71.30;100556.81;7399884;19;1471;-59
2022/06/11 09:14:31;;;;;;;;;;;;;;;22.24;70.96;100559.19;7402120;19;1329;-57
2022/06/11 09:17:11;;;;;;;;;;;;;;;22.40;72.00;100554.84;7399813;19;1234;-62
2022/06/11 09:19:47;;;;;;;;;;;;;;;22.33;71.63;100543.88;7400757;19;1455;-60
2022/06/11 09:22:22;;;;;;;;;;;;;;;22.49;72.23;100553.03;7401393;19;1375;-61
2022/06/11 09:25:05;;;;;;;;;;;;;;;22.54;71.26;100543.47;7397557;19;1864;-62
2022/06/11 09:27:37;;;;;;;;;;;;;;;22.52;72.11;100556.25;7400546;19;1269;-61
2022/06/11 09:30:08;;;;;;;;;;;;;;;22.51;71.75;100545.63;7334435;19;15139;-66
2022/06/11 09:32:41;;;;;;;;;;;;;;;22.55;71.90;100538.91;7401747;19;1388;-63
2022/06/11 09:35:11;;;;;;;;;;;;;;;22.43;71.76;100530.28;7401121;19;1311;-66
2022/06/11 09:37:49;;;;;;;;;;;;;;;22.37;71.75;100530.94;7401107;19;1356;-63
2022/06/11 09:40:25;;;;;;;;;;;;;;;22.35;71.92;100546.41;7400536;19;1471;-70
2022/06/11 09:43:01;;;;;;;;;;;;;;;22.45;71.71;100547.13;7400784;19;1865;-61
2022/06/11 09:45:32;;;;;;;;;;;;;;;22.43;71.86;100533.81;7401070;19;1372;-65
2022/06/11 09:48:06;;;;;;;;;;;;;;;22.38;71.84;100529.91;7403356;19;1357;-64
2022/06/11 09:50:38;;;;;;;;;;;;;;;22.31;71.87;100535.13;7403447;19;1375;-75
2022/06/11 09:53:18;;;;;;;;;;;;;;;22.34;72.24;100539.31;7404032;19;1485;-62
2022/06/11 09:55:53;;;;;;;;;;;;;;;22.27;71.79;100549.09;7405178;19;1296;-59
2022/06/11 09:58:29;;;;;;;;;;;;;;;22.14;72.01;100534.16;7405191;19;1503;-59
2022/06/11 10:00:59;;;;;;;;;;;;;;;22.09;71.99;100541.91;7404862;19;1388;-57
2022/06/11 10:03:43;;;;;;;;;;;;;;;22.15;71.95;100530.47;7032664;19;9999849;-56
2022/06/11 10:06:14;;;;;;;;;;;;;;;22.08;72.00;100550.13;7391891;19;1344;-56
2022/06/11 10:08:46;;;;;;;;;;;;;;;22.03;72.24;100535.31;7395710;19;1304;-57
2022/06/11 10:11:20;;;;;;;;;;;;;;;22.04;72.21;100542.41;7395451;19;1552;-56
2022/06/11 10:13:52;;;;;;;;;;;;;;;21.97;72.29;100532.44;7399076;19;1331;-57
2022/06/11 10:16:28;;;;;;;;;;;;;;;22.00;72.56;100537.47;7395208;19;1424;-56
2022/06/11 10:18:58;;;;;;;;;;;;;;;21.95;72.69;100531.75;7392649;19;1301;-56
2022/06/11 10:21:26;;;;;;;;;;;;;;;21.91;72.91;100523.13;7396964;19;1466;-57
2022/06/11 10:23:59;;;;;;;;;;;;;;;21.92;72.92;100540.13;7393714;19;1869;-57
2022/06/11 10:26:33;;;;;;;;;;;;;;;21.80;72.94;100529.63;7389286;19;1415;-56
2022/06/11 10:29:07;;;;;;;;;;;;;;;21.90;72.49;100517.91;7388227;19;1548;-56
2022/06/11 10:31:42;;;;;;;;;;;;;;;21.87;72.58;100524.47;7398309;19;1407;-56
2022/06/11 10:34:14;;;;;;;;;;;;;;;21.89;72.33;100524.31;7395696;19;1512;-56
2022/06/11 10:36:47;;;;;;;;;;;;;;;21.91;72.66;100523.13;7397592;19;1534;-56
2022/06/11 10:39:21;;;;;;;;;;;;;;;21.98;72.20;100534.94;7396081;19;1658;-57
2022/06/11 10:41:56;;;;;;;;;;;;;;;21.91;72.58;100533.06;7398716;19;1610;-57
2022/06/11 10:44:35;;;;;;;;;;;;;;;21.87;72.34;100520.94;7397618;19;1854;-57
2022/06/11 10:47:04;;;;;;;;;;;;;;;21.88;72.72;100522.59;7396421;19;1527;-56
2022/06/11 10:49:33;;;;;;;;;;;;;;;21.93;72.84;100514.91;7397923;19;1329;-56
2022/06/11 10:52:04;;;;;;;;;;;;;;;21.95;72.69;100520.97;7397218;19;1452;-56
2022/06/11 10:54:32;;;;;;;;;;;;;;;21.85;72.55;100508.47;7398138;19;1742;-55
2022/06/11 10:57:07;;;;;;;;;;;;;;;21.90;72.56;100520.59;7398503;19;1444;-57
2022/06/11 10:59:38;;;;;;;;;;;;;;;21.99;72.36;100512.41;7390631;19;1698;-63
2022/06/11 11:02:17;;;;;;;;;;;;;;;22.07;72.10;100511.59;7395253;19;1523;-64
2022/06/11 11:04:58;;;;;;;;;;;;;;;22.22;72.19;100493.81;7394492;19;2362;-57
2022/06/11 11:07:27;;;;;;;;;;;;;;;22.22;72.21;100504.59;7395266;19;1670;-70
2022/06/11 11:10:00;;;;;;;;;;;;;;;22.17;72.20;100477.28;7397050;19;1453;-68
2022/06/11 11:12:35;;;;;;;;;;;;;;;22.16;72.37;100485.53;7400267;19;1266;-71
2022/06/11 11:15:04;;;;;;;;;;;;;;;22.13;72.34;100486.72;7399006;19;1473;-70
2022/06/11 11:17:35;;;;;;;;;;;;;;;22.12;72.84;100485.00;7396026;19;1332;-69
2022/06/11 11:20:34;;;;;;;;;;;;;;;22.16;73.29;100481.00;7397482;19;1401;-66
2022/06/11 11:23:17;;;;;;;;;;;;;;;22.29;73.68;100487.81;7397306;19;1296;-61
2022/06/11 11:25:47;;;;;;;;;;;;;;;22.21;72.39;100485.91;7396947;19;1317;-60
2022/06/11 11:28:26;;;;;;;;;;;;;;;22.16;72.80;100491.78;7397348;19;1353;-60
2022/06/11 11:30:59;;;;;;;;;;;;;;;22.13;73.25;100481.31;7392807;19;1175;-59
2022/06/11 11:33:29;;;;;;;;;;;;;;;22.16;72.88;100482.84;7393905;19;1368;-58
2022/06/11 11:36:13;;;;;;;;;;;;;;;22.13;73.01;100473.25;7392468;19;1669;-60
2022/06/11 11:38:42;;;;;;;;;;;;;;;22.15;72.92;100482.00;7397621;19;1284;-61
2022/06/11 11:41:18;;;;;;;;;;;;;;;22.31;74.38;100485.78;7398615;19;1528;-60
2022/06/11 11:43:49;;;;;;;;;;;;;;;22.27;74.39;100479.06;7402886;19;1852;-60
2022/06/11 11:46:21;;;;;;;;;;;;;;;22.34;74.60;100490.84;7402523;19;1417;-64
2022/06/11 11:48:52;;;;;;;;;;;;;;;22.20;74.05;100489.59;7405626;19;1282;-58
2022/06/11 11:51:23;;;;;;;;;;;;;;;22.21;73.47;100496.66;7401675;19;1416;-56
2022/06/11 11:53:54;;;;;;;;;;;;;;;22.21;73.39;100502.06;7408151;19;1369;-58
2022/06/11 11:56:27;;;;;;;;;;;;;;;22.19;73.81;100498.69;7401934;19;1277;-58
2022/06/11 11:58:59;;;;;;;;;;;;;;;22.00;74.52;100499.78;7408952;19;1482;-58
2022/06/11 12:01:29;;;;;;;;;;;;;;;21.89;75.01;100497.38;7408222;19;1520;-57
2022/06/11 12:04:04;;;;;;;;;;;;;;;21.87;74.86;100491.31;7406416;19;1881;-57
2022/06/11 12:06:33;;;;;;;;;;;;;;;21.85;75.00;100502.25;7409445;19;1254;-57
2022/06/11 12:09:03;;;;;;;;;;;;;;;21.88;75.89;100501.91;7409294;19;1101;-58
2022/06/11 12:11:36;;;;;;;;;;;;;;;21.72;75.23;100491.06;7407937;19;1410;-57
2022/06/11 12:14:13;;;;;;;;;;;;;;;21.77;75.31;100497.66;7408298;19;1374;-57
2022/06/11 12:16:45;;;;;;;;;;;;;;;21.80;75.62;100491.94;7409603;19;1248;-57
2022/06/11 12:19:17;;;;;;;;;;;;;;;21.80;75.95;100502.69;7408768;19;1155;-57
2022/06/11 12:21:47;;;;;;;;;;;;;;;21.77;75.20;100500.34;7409816;19;1353;-56
2022/06/11 12:24:16;;;;;;;;;;;;;;;21.76;75.09;100501.34;7406542;19;1853;-57
2022/06/11 12:26:46;;;;;;;;;;;;;;;21.83;75.03;100485.41;7407620;19;1277;-57
2022/06/11 12:29:19;;;;;;;;;;;;;;;21.77;74.98;100500.34;7408625;19;1345;-58
2022/06/11 12:31:48;;;;;;;;;;;;;;;21.84;74.66;100506.78;7407686;19;1348;-59
2022/06/11 12:34:17;;;;;;;;;;;;;;;21.77;74.95;100504.91;7408572;19;1415;-57
2022/06/11 12:36:53;;;;;;;;;;;;;;;21.74;74.76;100503.34;7408796;19;1412;-58
2022/06/11 12:39:26;;;;;;;;;;;;;;;21.69;74.90;100481.47;7408661;19;1301;-51
2022/06/11 12:41:57;;;;;;;;;;;;;;;21.70;74.90;100488.53;7407386;19;1063;-55
2022/06/11 12:44:36;;;;;;;;;;;;;;;21.67;74.77;100504.19;7407556;19;1864;-55
2022/06/11 12:47:11;;;;;;;;;;;;;;;21.69;74.57;100486.03;7407412;19;1451;-54
2022/06/11 12:49:44;;;;;;;;;;;;;;;21.65;74.45;100488.19;7408011;19;1372;-54
2022/06/11 12:52:16;;;;;;;;;;;;;;;21.68;74.46;100490.53;7405660;19;1431;-55
2022/06/11 12:54:54;;;;;;;;;;;;;;;21.71;74.75;100489.41;7408105;19;1206;-55
2022/06/11 12:57:31;;;;;;;;;;;;;;;21.67;74.67;100494.25;7408962;19;1055;-54
2022/06/11 13:00:09;;;;;;;;;;;;;;;21.74;74.85;100497.13;7407182;19;1270;-54
2022/06/11 13:02:46;;;;;;;;;;;;;;;21.68;74.99;100479.78;7405773;19;1697;-55
2022/06/11 13:05:32;;;;;;;;;;;;;;;21.68;75.06;100477.09;7406122;19;1850;-54
2022/06/11 13:08:09;;;;;;;;;;;;;;;21.72;74.51;100475.75;7406860;19;1737;-55
2022/06/11 13:10:41;;;;;;;;;;;;;;;21.68;74.61;100463.63;7407010;19;1542;-57
2022/06/11 13:13:20;;;;;;;;;;;;;;;21.55;75.20;100457.84;7408589;19;1059;-57